createdAt,value
2018-08-17T00:01:39.266Z,24.20
2018-08-17T00:04:08.629Z,24.20
2018-08-17T00:06:37.993Z,24.20
2018-08-17T00:09:10.943Z,24.20
2018-08-17T00:11:40.355Z,24.20
2018-08-17T00:14:10.114Z,24.20
2018-08-17T00:16:39.826Z,24.20
2018-08-17T00:19:09.159Z,24.20
2018-08-17T00:21:38.776Z,24.20
2018-08-17T00:24:08.123Z,24.10
2018-08-17T00:26:37.437Z,24.10
2018-08-17T00:29:06.796Z,24.10
2018-08-17T00:31:36.094Z,24.10
2018-08-17T00:34:05.432Z,24.10
2018-08-17T00:36:34.745Z,24.10
2018-08-17T00:39:05.728Z,24.10
2018-08-17T00:41:35.071Z,24.10
2018-08-17T00:44:04.405Z,24.00
2018-08-17T00:46:33.726Z,24.00
2018-08-17T00:49:03.072Z,24.00
2018-08-17T00:51:32.406Z,24.00
2018-08-17T00:54:01.777Z,24.00
2018-08-17T00:56:31.119Z,24.00
2018-08-17T00:59:00.430Z,23.90
2018-08-17T01:01:29.775Z,23.90
2018-08-17T01:03:59.105Z,23.90
2018-08-17T01:06:28.476Z,23.80
2018-08-17T01:08:57.790Z,23.80
2018-08-17T01:11:27.122Z,23.80
2018-08-17T01:13:56.439Z,23.70
2018-08-17T01:16:25.802Z,23.70
2018-08-17T01:18:55.136Z,23.60
2018-08-17T01:21:24.473Z,23.60
2018-08-17T01:23:53.813Z,23.50
2018-08-17T01:26:23.147Z,23.50
2018-08-17T01:28:52.474Z,23.40
2018-08-17T01:31:21.850Z,23.40
2018-08-17T01:33:51.180Z,23.30
2018-08-17T01:36:20.502Z,23.20
2018-08-17T01:38:49.866Z,23.20
2018-08-17T01:41:19.210Z,23.10
2018-08-17T01:43:48.537Z,23.10
2018-08-17T01:46:17.861Z,23.00
2018-08-17T01:48:47.339Z,22.90
2018-08-17T01:51:16.658Z,22.90
2018-08-17T01:53:45.990Z,22.80
2018-08-17T01:56:15.374Z,22.80
2018-08-17T01:58:44.758Z,22.70
2018-08-17T02:01:14.081Z,22.70
2018-08-17T02:03:43.388Z,22.60
2018-08-17T02:06:12.755Z,22.60
2018-08-17T02:08:42.112Z,22.60
2018-08-17T02:11:11.427Z,22.60
2018-08-17T02:13:40.764Z,22.60
2018-08-17T02:16:10.103Z,22.60
2018-08-17T02:18:39.437Z,22.60
2018-08-17T02:21:08.848Z,22.60
2018-08-17T02:23:38.190Z,22.60
2018-08-17T02:26:07.777Z,22.50
2018-08-17T02:28:37.106Z,22.50
2018-08-17T02:31:06.442Z,22.50
2018-08-17T02:33:35.794Z,22.60
2018-08-17T02:36:05.133Z,22.60
2018-08-17T02:38:34.460Z,22.70
2018-08-17T02:41:03.740Z,22.70
2018-08-17T02:43:33.089Z,22.80
2018-08-17T02:46:02.402Z,22.80
2018-08-17T02:48:31.772Z,22.90
2018-08-17T02:51:01.203Z,22.90
2018-08-17T02:53:30.556Z,22.90
2018-08-17T02:55:59.881Z,23.00
2018-08-17T02:58:29.203Z,23.00
2018-08-17T03:00:58.523Z,23.00
2018-08-17T03:03:28.096Z,23.10
2018-08-17T03:05:57.437Z,23.10
2018-08-17T03:08:26.765Z,23.10
2018-08-17T03:10:56.116Z,23.20
2018-08-17T03:13:25.428Z,23.20
2018-08-17T03:15:54.791Z,23.20
2018-08-17T03:18:24.105Z,23.20
2018-08-17T03:20:53.447Z,23.20
2018-08-17T03:23:22.778Z,23.20
2018-08-17T03:25:52.129Z,23.20
2018-08-17T03:28:21.461Z,23.20
2018-08-17T03:30:50.921Z,23.10
2018-08-17T03:33:20.249Z,23.10
2018-08-17T03:35:49.681Z,23.10
2018-08-17T03:38:19.014Z,23.10
2018-08-17T03:40:48.330Z,23.00
2018-08-17T03:43:17.700Z,23.00
2018-08-17T03:45:47.025Z,23.00
2018-08-17T03:48:16.385Z,22.90
2018-08-17T03:50:45.773Z,22.90
2018-08-17T03:53:15.106Z,22.80
2018-08-17T03:55:44.452Z,22.80
2018-08-17T03:58:13.786Z,22.80
2018-08-17T04:00:43.101Z,22.80
2018-08-17T04:03:12.461Z,22.70
2018-08-17T04:05:41.805Z,22.70
2018-08-17T04:08:11.115Z,22.60
2018-08-17T04:10:40.526Z,22.60
2018-08-17T04:13:09.938Z,22.60
2018-08-17T04:15:39.395Z,22.60
2018-08-17T04:18:09.393Z,22.50
2018-08-17T04:20:38.915Z,22.50
2018-08-17T04:23:08.261Z,22.50
2018-08-17T04:25:37.617Z,22.50
2018-08-17T04:28:07.098Z,22.50
2018-08-17T04:30:36.443Z,22.50
2018-08-17T04:33:05.788Z,22.50
2018-08-17T04:35:35.146Z,22.50
2018-08-17T04:38:04.452Z,22.50
2018-08-17T04:40:33.781Z,22.50
2018-08-17T04:43:03.147Z,22.60
2018-08-17T04:45:32.470Z,22.60
2018-08-17T04:48:01.818Z,22.70
2018-08-17T04:50:31.166Z,22.70
2018-08-17T04:53:00.504Z,22.80
2018-08-17T04:55:29.999Z,22.80
2018-08-17T04:58:00.261Z,22.80
2018-08-17T05:00:29.578Z,22.90
2018-08-17T05:02:58.915Z,22.90
2018-08-17T05:05:28.272Z,22.90
2018-08-17T05:07:57.629Z,22.90
2018-08-17T05:10:26.967Z,22.90
2018-08-17T05:12:56.315Z,22.90
2018-08-17T05:15:25.648Z,22.90
2018-08-17T05:17:55.005Z,23.00
2018-08-17T05:20:24.405Z,23.00
2018-08-17T05:22:53.746Z,23.00
2018-08-17T05:25:23.193Z,23.10
2018-08-17T05:27:52.518Z,23.20
2018-08-17T05:30:21.883Z,23.30
2018-08-17T05:32:51.434Z,23.30
2018-08-17T05:35:20.793Z,23.40
2018-08-17T05:37:50.263Z,23.50
2018-08-17T05:40:19.636Z,23.50
2018-08-17T05:42:49.029Z,23.60
2018-08-17T05:45:18.383Z,23.60
2018-08-17T05:47:47.726Z,23.70
2018-08-17T05:50:17.067Z,23.70
2018-08-17T05:52:46.433Z,23.80
2018-08-17T05:55:15.744Z,23.90
2018-08-17T05:57:45.086Z,23.90
2018-08-17T06:00:14.444Z,23.90
2018-08-17T06:02:43.830Z,24.00
2018-08-17T06:05:13.197Z,24.00
2018-08-17T06:07:42.558Z,24.00
2018-08-17T06:10:11.941Z,24.00
2018-08-17T06:12:41.290Z,23.90
2018-08-17T06:15:10.708Z,23.90
2018-08-17T06:17:41.097Z,23.90
2018-08-17T06:20:10.434Z,23.90
2018-08-17T06:22:39.791Z,23.80
2018-08-17T06:25:11.540Z,23.80
2018-08-17T06:27:41.470Z,23.70
2018-08-17T06:30:13.774Z,23.60
2018-08-17T06:32:43.542Z,23.50
2018-08-17T06:35:14.027Z,23.40
2018-08-17T06:37:44.205Z,23.30
2018-08-17T06:40:13.570Z,23.20
2018-08-17T06:42:42.909Z,23.20
2018-08-17T06:45:13.111Z,23.20
2018-08-17T06:47:42.455Z,23.20
2018-08-17T06:50:12.297Z,23.20
2018-08-17T06:52:42.546Z,23.20
2018-08-17T06:55:12.650Z,23.10
2018-08-17T06:57:41.997Z,23.10
2018-08-17T07:00:15.152Z,23.10
2018-08-17T07:02:45.646Z,23.00
2018-08-17T07:05:15.182Z,23.00
2018-08-17T07:07:44.526Z,23.00
2018-08-17T07:10:14.618Z,23.00
2018-08-17T07:12:44.185Z,23.00
2018-08-17T07:15:13.542Z,23.10
2018-08-17T07:17:42.911Z,23.10
2018-08-17T07:20:13.581Z,23.10
2018-08-17T07:22:43.142Z,23.20
2018-08-17T07:25:12.519Z,23.20
2018-08-17T07:27:41.897Z,23.20
2018-08-17T07:30:11.286Z,23.20
2018-08-17T07:32:40.663Z,23.20
2018-08-17T07:35:11.030Z,23.20
2018-08-17T07:37:40.537Z,23.20
2018-08-17T07:40:10.126Z,23.20
2018-08-17T07:42:39.501Z,23.30
2018-08-17T07:45:08.888Z,23.40
2018-08-17T07:47:38.302Z,23.40
2018-08-17T07:50:07.654Z,23.50
2018-08-17T07:52:37.000Z,23.50
2018-08-17T07:55:06.309Z,23.60
2018-08-17T07:57:35.664Z,23.70
2018-08-17T08:00:05.783Z,23.80
2018-08-17T08:02:35.707Z,23.90
2018-08-17T08:05:05.778Z,24.00
2018-08-17T08:07:35.125Z,24.00
2018-08-17T08:10:04.605Z,24.00
2018-08-17T08:12:34.033Z,24.10
2018-08-17T08:15:03.447Z,24.20
2018-08-17T08:17:32.826Z,24.30
2018-08-17T08:20:19.267Z,24.40
2018-08-17T08:22:48.876Z,24.50
2018-08-17T08:25:18.217Z,24.60
2018-08-17T08:27:47.560Z,24.70
2018-08-17T08:30:16.915Z,24.80
2018-08-17T08:32:46.628Z,24.90
2018-08-17T08:35:15.997Z,25.00
2018-08-17T08:37:45.317Z,25.20
2018-08-17T08:40:14.642Z,25.30
2018-08-17T08:42:44.059Z,25.40
2018-08-17T08:45:13.739Z,25.50
2018-08-17T08:47:43.094Z,25.60
2018-08-17T08:50:12.670Z,25.70
2018-08-17T08:52:42.034Z,25.80
2018-08-17T08:55:11.384Z,25.80
2018-08-17T08:57:40.840Z,25.90
2018-08-17T09:00:11.094Z,25.90
2018-08-17T09:02:40.466Z,25.90
2018-08-17T09:09:39.623Z,25.40
2018-08-17T09:12:08.997Z,25.40
2018-08-17T09:14:38.432Z,25.40
2018-08-17T09:17:07.798Z,25.30
2018-08-17T09:19:37.133Z,25.30
2018-08-17T09:22:06.618Z,25.30
2018-08-17T09:24:36.028Z,25.30
2018-08-17T09:27:05.481Z,25.40
2018-08-17T09:29:34.853Z,25.50
2018-08-17T09:32:04.243Z,25.60
2018-08-17T09:34:33.606Z,25.60
2018-08-17T09:37:03.016Z,25.60
2018-08-17T09:39:32.406Z,25.60
2018-08-17T09:42:01.875Z,25.70
2018-08-17T09:44:31.184Z,25.70
2018-08-17T09:47:00.581Z,25.80
2018-08-17T09:49:29.960Z,25.70
2018-08-17T09:51:59.357Z,25.70
2018-08-17T09:54:28.718Z,25.70
2018-08-17T09:56:58.099Z,25.60
2018-08-17T09:59:27.530Z,25.60
2018-08-17T10:02:02.185Z,25.60
2018-08-17T10:04:36.806Z,25.60
2018-08-17T10:07:11.301Z,25.60
2018-08-17T10:09:59.850Z,25.50
2018-08-17T10:12:29.251Z,25.30
2018-08-17T10:14:58.653Z,25.20
2018-08-17T10:17:28.030Z,25.30
2018-08-17T10:19:57.426Z,25.30
2018-08-17T10:22:26.846Z,25.40
2018-08-17T10:25:02.100Z,25.40
2018-08-17T10:27:31.460Z,25.30
2018-08-17T10:30:00.845Z,25.40
2018-08-17T10:32:30.642Z,25.40
2018-08-17T10:35:00.036Z,25.30
2018-08-17T10:37:29.446Z,25.20
2018-08-17T10:39:58.815Z,25.20
2018-08-17T10:42:28.184Z,25.30
2018-08-17T10:44:59.504Z,25.40
2018-08-17T10:47:28.952Z,25.60
2018-08-17T10:50:01.573Z,25.90
2018-08-17T10:52:31.039Z,26.20
2018-08-17T10:55:00.413Z,26.40
2018-08-17T10:57:29.836Z,26.50
2018-08-17T10:59:59.277Z,26.50
2018-08-17T11:02:28.652Z,26.40
2018-08-17T11:04:58.065Z,26.30
2018-08-17T11:07:32.636Z,26.20
2018-08-17T11:10:02.049Z,26.30
2018-08-17T11:12:31.495Z,26.50
2018-08-17T11:15:00.916Z,26.60
2018-08-17T11:17:30.280Z,26.70
2018-08-17T11:19:59.813Z,26.70
2018-08-17T11:22:29.168Z,26.70
2018-08-17T11:24:58.868Z,26.80
2018-08-17T11:27:28.241Z,26.80
2018-08-17T11:29:57.642Z,26.80
2018-08-17T11:32:27.388Z,26.80
2018-08-17T11:34:56.839Z,26.90
2018-08-17T11:37:32.742Z,27.10
2018-08-17T11:40:03.303Z,27.20
2018-08-17T11:42:39.236Z,27.30
2018-08-17T11:45:12.234Z,27.30
2018-08-17T11:47:42.586Z,27.30
2018-08-17T11:50:14.242Z,27.30
2018-08-17T11:52:59.902Z,27.40
2018-08-17T11:55:31.162Z,27.40
2018-08-17T11:58:00.601Z,27.40
2018-08-17T12:00:36.214Z,27.60
2018-08-17T12:03:07.528Z,27.70
2018-08-17T12:05:37.011Z,27.80
2018-08-17T12:08:06.637Z,27.80
2018-08-17T12:10:35.952Z,27.80
2018-08-17T12:13:10.630Z,27.80
2018-08-17T12:16:00.021Z,27.80
2018-08-17T12:18:29.794Z,27.80
2018-08-17T12:20:59.579Z,27.80
2018-08-17T12:23:29.441Z,28.00
2018-08-17T12:25:59.508Z,28.10
2018-08-17T12:28:30.436Z,28.20
2018-08-17T12:31:00.812Z,28.30
2018-08-17T12:33:30.589Z,28.30
2018-08-17T12:36:00.442Z,28.40
2018-08-17T12:38:30.300Z,28.40
2018-08-17T12:41:00.078Z,28.30
2018-08-17T12:43:33.486Z,28.10
2018-08-17T12:46:03.347Z,28.00
2018-08-17T12:48:33.092Z,27.90
2018-08-17T12:51:04.490Z,27.90
2018-08-17T12:53:34.260Z,27.90
2018-08-17T12:56:04.056Z,27.70
2018-08-17T12:58:33.808Z,27.60
2018-08-17T13:01:03.639Z,27.50
2018-08-17T13:03:33.484Z,27.60
2018-08-17T13:06:03.360Z,27.60
2018-08-17T13:08:33.152Z,27.60
2018-08-17T13:11:02.948Z,27.60
2018-08-17T13:13:32.701Z,27.60
2018-08-17T13:16:06.416Z,27.60
2018-08-17T13:18:38.134Z,27.60
2018-08-17T13:21:07.819Z,27.60
2018-08-17T13:23:37.230Z,27.60
2018-08-17T13:26:06.828Z,27.60
2018-08-17T13:28:36.541Z,27.70
2018-08-17T13:31:06.150Z,27.70
2018-08-17T13:33:35.518Z,27.80
2018-08-17T13:36:04.910Z,27.90
2018-08-17T13:38:34.323Z,28.00
2018-08-17T13:41:03.722Z,28.10
2018-08-17T13:43:33.117Z,28.00
2018-08-17T13:46:02.515Z,28.00
2018-08-17T13:48:32.110Z,27.90
2018-08-17T13:51:01.550Z,27.90
2018-08-17T13:53:30.984Z,27.90
2018-08-17T13:56:00.447Z,27.90
2018-08-17T13:58:29.843Z,27.90
2018-08-17T14:00:59.222Z,28.00
2018-08-17T14:03:28.705Z,28.00
2018-08-17T14:05:58.066Z,28.00
2018-08-17T14:08:27.464Z,28.00
2018-08-17T14:10:56.910Z,27.80
2018-08-17T14:13:26.489Z,27.70
2018-08-17T14:15:55.875Z,27.80
2018-08-17T14:18:25.265Z,28.00
2018-08-17T14:20:54.661Z,28.10
2018-08-17T14:23:24.051Z,28.20
2018-08-17T14:25:53.470Z,28.20
2018-08-17T14:28:22.881Z,28.20
2018-08-17T14:30:52.315Z,28.30
2018-08-17T14:33:21.793Z,28.40
2018-08-17T14:35:51.157Z,28.40
2018-08-17T14:38:30.550Z,28.50
2018-08-17T14:41:00.109Z,28.40
2018-08-17T14:43:29.512Z,28.30
2018-08-17T14:45:58.923Z,28.20
2018-08-17T14:48:28.323Z,28.20
2018-08-17T14:50:57.728Z,28.20
2018-08-17T14:53:27.235Z,28.20
2018-08-17T14:55:56.660Z,28.10
2018-08-17T14:58:26.072Z,28.00
2018-08-17T15:00:55.508Z,27.90
2018-08-17T15:03:24.907Z,27.80
2018-08-17T15:05:54.306Z,27.70
2018-08-17T15:08:23.677Z,27.70
2018-08-17T15:10:53.070Z,27.70
2018-08-17T15:13:22.476Z,27.80
2018-08-17T15:15:51.885Z,27.90
2018-08-17T15:18:21.478Z,27.90
2018-08-17T15:20:50.854Z,27.90
2018-08-17T15:23:20.230Z,27.80
2018-08-17T15:25:49.597Z,27.80
2018-08-17T15:28:18.970Z,27.80
2018-08-17T15:30:48.363Z,27.80
2018-08-17T15:33:17.781Z,27.70
2018-08-17T15:35:47.154Z,27.70
2018-08-17T15:38:16.541Z,27.60
2018-08-17T15:40:45.996Z,27.50
2018-08-17T15:43:19.349Z,27.50
2018-08-17T15:45:49.885Z,27.40
2018-08-17T15:48:19.736Z,27.40
2018-08-17T15:50:49.185Z,27.40
2018-08-17T15:53:18.594Z,27.50
2018-08-17T15:55:47.999Z,27.50
2018-08-17T15:58:17.402Z,27.60
2018-08-17T16:00:46.781Z,27.60
2018-08-17T16:03:16.186Z,27.60
2018-08-17T16:05:45.615Z,27.70
2018-08-17T16:08:15.048Z,27.70
2018-08-17T16:10:44.434Z,27.80
2018-08-17T16:13:13.870Z,27.80
2018-08-17T16:15:43.274Z,27.80
2018-08-17T16:18:12.752Z,27.80
2018-08-17T16:20:42.194Z,27.80
2018-08-17T16:23:11.585Z,27.80
2018-08-17T16:25:40.995Z,27.80
2018-08-17T16:28:10.381Z,27.70
2018-08-17T16:30:39.798Z,27.80
2018-08-17T16:33:09.269Z,27.80
2018-08-17T16:35:38.707Z,27.90
2018-08-17T16:38:08.173Z,28.00
2018-08-17T16:40:42.561Z,28.10
2018-08-17T16:43:11.955Z,28.20
2018-08-17T16:45:41.323Z,28.40
2018-08-17T16:48:10.742Z,28.40
2018-08-17T16:50:40.133Z,28.50
2018-08-17T16:53:09.628Z,28.60
2018-08-17T16:55:39.035Z,28.50
2018-08-17T16:58:08.451Z,28.40
2018-08-17T17:00:37.967Z,28.20
2018-08-17T17:03:07.579Z,28.10
2018-08-17T17:05:36.966Z,28.00
2018-08-17T17:08:06.426Z,27.80
2018-08-17T17:10:35.840Z,27.80
2018-08-17T17:13:05.280Z,27.70
2018-08-17T17:15:34.774Z,27.60
2018-08-17T17:18:09.534Z,27.60
2018-08-17T17:20:39.672Z,27.50
2018-08-17T17:23:10.302Z,27.50
2018-08-17T17:25:39.929Z,27.60
2018-08-17T17:28:09.724Z,27.80
2018-08-17T17:30:45.374Z,28.00
2018-08-17T17:33:14.841Z,28.20
2018-08-17T17:35:44.655Z,28.40
2018-08-17T17:38:14.100Z,28.60
2018-08-17T17:40:43.569Z,28.80
2018-08-17T17:43:13.002Z,29.00
2018-08-17T17:45:42.445Z,29.20
2018-08-17T17:48:11.933Z,29.30
2018-08-17T17:50:41.353Z,29.40
2018-08-17T17:53:10.769Z,29.50
2018-08-17T17:55:45.726Z,29.60
2018-08-17T17:58:15.230Z,29.70
2018-08-17T18:00:58.153Z,29.70
2018-08-17T18:03:28.981Z,29.80
2018-08-17T18:06:05.247Z,29.80
2018-08-17T18:08:34.961Z,29.80
2018-08-17T18:11:04.414Z,29.80
2018-08-17T18:13:33.841Z,29.70
2018-08-17T18:16:04.435Z,29.70
2018-08-17T18:18:33.842Z,29.50
2018-08-17T18:21:03.247Z,29.40
2018-08-17T18:23:32.704Z,29.20
2018-08-17T18:26:02.122Z,28.90
2018-08-17T18:28:31.558Z,28.60
2018-08-17T18:31:01.026Z,28.30
2018-08-17T18:33:30.447Z,28.60
2018-08-17T18:35:59.887Z,28.00
2018-08-17T18:38:29.261Z,27.60
2018-08-17T18:40:58.715Z,27.20
2018-08-17T18:43:28.177Z,26.90
2018-08-17T18:45:57.635Z,26.60
2018-08-17T18:48:27.042Z,26.30
2018-08-17T18:50:56.422Z,26.00
2018-08-17T18:53:25.923Z,25.70
2018-08-17T18:55:55.750Z,25.40
2018-08-17T18:58:25.474Z,25.20
2018-08-17T19:00:55.259Z,24.90
2018-08-17T19:03:25.162Z,24.70
2018-08-17T19:05:55.098Z,24.40
2018-08-17T19:08:24.966Z,24.20
2018-08-17T19:10:54.804Z,23.90
2018-08-17T19:13:24.608Z,23.70
2018-08-17T19:15:54.785Z,23.50
2018-08-17T19:18:28.999Z,23.30
2018-08-17T19:21:05.132Z,23.10
2018-08-17T19:23:34.766Z,22.90
2018-08-17T19:26:04.390Z,22.70
2018-08-17T19:28:34.087Z,22.60
2018-08-17T19:31:03.850Z,22.40
2018-08-17T19:33:33.691Z,22.20
2018-08-17T19:36:03.948Z,22.10
2018-08-17T19:38:41.966Z,22.00
2018-08-17T19:41:11.747Z,21.90
2018-08-17T19:43:41.635Z,21.70
2018-08-17T19:46:11.615Z,21.60
2018-08-17T19:48:41.253Z,21.40
2018-08-17T19:51:16.101Z,21.30
2018-08-17T19:53:45.985Z,21.20
2018-08-17T19:56:16.398Z,21.10
2018-08-17T19:58:46.138Z,21.00
2018-08-17T20:01:15.895Z,20.80
2018-08-17T20:03:45.684Z,20.70
2018-08-17T20:06:15.510Z,20.60
2018-08-17T20:08:45.317Z,20.50
2018-08-17T20:11:15.141Z,20.40
2018-08-17T20:13:44.944Z,20.30
2018-08-17T20:16:19.773Z,20.20
2018-08-17T20:18:49.742Z,20.10
2018-08-17T20:21:23.626Z,20.10
2018-08-17T20:23:53.036Z,20.00
2018-08-17T20:26:23.254Z,19.90
2018-08-17T20:28:52.623Z,19.80
2018-08-17T20:31:22.095Z,19.70
2018-08-17T20:33:51.534Z,19.70
2018-08-17T20:36:22.036Z,19.60
2018-08-17T20:38:51.495Z,19.50
2018-08-17T20:41:20.915Z,19.50
2018-08-17T20:43:50.331Z,19.40
2018-08-17T20:46:19.757Z,19.40
2018-08-17T20:48:50.915Z,19.30
2018-08-17T20:51:25.207Z,19.20
2018-08-17T20:54:01.585Z,19.20
2018-08-17T20:56:30.996Z,19.10
2018-08-17T20:59:00.427Z,19.00
2018-08-17T21:01:29.865Z,19.00
2018-08-17T21:03:59.420Z,18.90
2018-08-17T21:06:29.153Z,18.90
2018-08-17T21:08:58.934Z,18.80
2018-08-17T21:11:28.712Z,18.80
2018-08-17T21:13:58.491Z,18.70
2018-08-17T21:16:28.232Z,18.70
2018-08-17T21:18:57.942Z,18.70
2018-08-17T21:21:27.789Z,18.60
2018-08-17T21:23:57.524Z,18.60
2018-08-17T21:26:27.786Z,18.50
2018-08-17T21:28:57.580Z,18.50
2018-08-17T21:31:27.339Z,18.40
2018-08-17T21:33:57.147Z,18.40
2018-08-17T21:36:26.909Z,18.40
2018-08-17T21:39:19.885Z,18.30
2018-08-17T21:41:50.068Z,18.20
2018-08-17T21:44:20.929Z,18.20
2018-08-17T21:46:56.030Z,18.20
2018-08-17T21:49:26.326Z,18.20
2018-08-17T21:52:00.570Z,18.10
2018-08-17T21:54:32.573Z,18.10
2018-08-17T21:59:48.180Z,18.00
2018-08-17T22:02:18.416Z,18.00
2018-08-17T22:04:48.637Z,18.00
2018-08-17T22:07:22.050Z,18.00
2018-08-17T22:09:52.118Z,18.00
2018-08-17T22:12:21.779Z,17.90
2018-08-17T22:14:51.119Z,17.90
2018-08-17T22:17:35.190Z,17.90
2018-08-17T22:20:05.750Z,17.90
2018-08-17T22:22:35.537Z,17.80
2018-08-17T22:25:14.671Z,17.80
2018-08-17T22:27:44.401Z,17.80
2018-08-17T22:30:21.598Z,17.80
2018-08-17T22:32:51.562Z,17.80
2018-08-17T22:35:21.052Z,17.80
2018-08-17T22:37:50.466Z,17.70
2018-08-17T22:40:19.891Z,17.70
2018-08-17T22:42:50.369Z,17.70
2018-08-17T22:45:19.746Z,17.70
2018-08-17T22:47:49.174Z,17.70
2018-08-17T22:50:18.546Z,17.70
2018-08-17T22:52:47.914Z,17.70
2018-08-17T22:55:17.281Z,17.60
2018-08-17T22:57:46.670Z,17.60
2018-08-17T23:00:23.983Z,17.60
2018-08-17T23:02:54.681Z,17.60
2018-08-17T23:05:28.197Z,17.60
2018-08-17T23:07:57.621Z,17.50
2018-08-17T23:10:27.917Z,17.50
2018-08-17T23:12:57.961Z,17.50
2018-08-17T23:15:27.337Z,17.50
2018-08-17T23:17:59.006Z,17.50
2018-08-17T23:20:33.831Z,17.40
2018-08-17T23:23:04.549Z,17.40
2018-08-17T23:25:34.444Z,17.40
2018-08-17T23:28:04.174Z,17.40
2018-08-17T23:30:33.930Z,17.40
2018-08-17T23:33:04.331Z,17.40
2018-08-17T23:35:34.058Z,17.40
2018-08-17T23:38:03.809Z,17.40
2018-08-17T23:40:33.592Z,17.40
2018-08-17T23:43:03.343Z,17.40
2018-08-17T23:45:33.106Z,17.40
2018-08-17T23:48:02.797Z,17.40
2018-08-17T23:50:32.602Z,17.40
2018-08-17T23:53:02.253Z,17.40
2018-08-17T23:55:31.634Z,17.30
2018-08-17T23:58:01.026Z,17.30
